LEVD/VLL METAR and TAF weather

Enter ICAO airport designator
Station Type Date Time Source
LEVD METAR 2020/04/05 11:30 UTC NOAA

LEVD 051130Z AUTO 19010KT 140V230 CAVOK 16/07 Q1015


Station Type Date Time Source
LEVD Decoded METAR 2020/04/05 11:30 UTC NOAA

Valladolid / Villanubla, Spain (LEVD) 41-43N 004-51W 846M
Apr 05, 2020 - 07:30 AM EDT / 2020.04.05 1130 UTC
Wind: from the S (190 degrees) at 12 MPH (10 KT) (direction variable):0
Visibility: greater than 7 mile(s):0
Temperature: 60 F (16 C)
Dew Point: 44 F (7 C)
Relative Humidity: 55%
Pressure (altimeter): 29.97 in. Hg (1015 hPa)
ob: LEVD 051130Z AUTO 19010KT 140V230 CAVOK 16/07 Q1015
cycle: 11

Station Type Date Time Source
LEVD TAF 2020/04/05 12:27 UTC NOAA

TAF LEVD 051100Z 0512/0612 21012KT 9999 FEW030 SCT045 TX21/0515Z TN11/0606Z PROB30
TEMPO 0513/0517 22012G25KT PROB40
TEMPO 0515/0608 4000 RA BKN012 BKN035 PROB40
TEMPO 0515/0520 4000 SHRA SCT025TCU PROB40
TEMPO 0521/0608 3000 BR BKN007 PROB30
TEMPO 0602/0605 0300 FG VV001

Example: see airport list